Time;durP1;ratioP1;P1;durP2;ratioP2;P2;SDS_P1;SDS_P2;PMS_P1;PMS_P2;Temp;Humidity;BMP_temperature;BMP_pressure;BME280_temperature;BME280_humidity;BME280_pressure;Samples;Min_cycle;Max_cycle;Signal;HPM_P1;HPM_P2
2022/11/30 00:02:03;;;;;;;37.42;25.25;;;7.10;99.90;;;;;;5043661;28;20030;-65
2022/11/30 00:04:29;;;;;;;34.63;25.80;;;7.10;99.90;;;;;;5043471;28;20191;-65
2022/11/30 00:06:56;;;;;;;39.50;26.30;;;7.00;99.90;;;;;;5031442;28;20073;-65
2022/11/30 00:09:23;;;;;;;36.25;25.45;;;7.10;99.90;;;;;;5039513;28;20489;-64
2022/11/30 00:11:48;;;;;;;36.08;25.98;;;7.10;99.90;;;;;;5041335;28;20738;-65
2022/11/30 00:14:14;;;;;;;34.83;25.63;;;7.00;99.90;;;;;;5039804;28;20048;-64
2022/11/30 00:16:40;;;;;;;34.85;25.42;;;7.00;99.90;;;;;;5035478;28;20415;-65
2022/11/30 00:19:05;;;;;;;41.15;26.58;;;7.00;99.90;;;;;;5039939;28;20037;-65
2022/11/30 00:21:31;;;;;;;39.38;26.55;;;7.00;99.90;;;;;;5039094;28;20571;-65
2022/11/30 00:23:56;;;;;;;34.75;26.75;;;7.00;99.90;;;;;;5039764;28;20104;-64
2022/11/30 00:26:22;;;;;;;34.53;25.33;;;7.00;99.90;;;;;;5038147;28;20116;-65
2022/11/30 00:28:48;;;;;;;41.65;28.33;;;7.00;99.90;;;;;;5046067;28;20504;-65
2022/11/30 00:31:15;;;;;;;38.13;27.17;;;6.90;99.90;;;;;;5039151;28;20045;-65
2022/11/30 00:33:41;;;;;;;33.20;25.60;;;6.90;99.90;;;;;;5040730;28;20084;-65
2022/11/30 00:36:11;;;;;;;36.85;26.08;;;6.90;99.90;;;;;;5032474;28;20096;-64
2022/11/30 00:38:37;;;;;;;37.25;26.70;;;6.90;99.90;;;;;;5037607;28;20629;-66
2022/11/30 00:41:03;;;;;;;33.35;24.05;;;6.80;99.90;;;;;;5041292;28;20067;-65
2022/11/30 00:43:29;;;;;;;37.45;26.70;;;6.70;99.90;;;;;;5039227;28;20040;-65
2022/11/30 00:45:55;;;;;;;39.28;25.77;;;6.60;99.90;;;;;;5041333;28;20154;-66
2022/11/30 00:48:20;;;;;;;36.10;25.45;;;6.50;99.90;;;;;;5043003;28;20114;-64
2022/11/30 00:50:48;;;;;;;38.30;25.95;;;6.40;99.90;;;;;;5034421;28;20045;-65
2022/11/30 00:53:13;;;;;;;38.53;26.25;;;6.30;99.90;;;;;;5043676;28;20094;-65
2022/11/30 00:55:39;;;;;;;43.03;26.20;;;6.20;99.90;;;;;;5031690;28;20041;-64
2022/11/30 00:58:06;;;;;;;37.22;25.83;;;6.10;99.90;;;;;;5037803;28;20090;-65
2022/11/30 01:00:32;;;;;;;41.20;26.40;;;6.00;99.90;;;;;;5039955;28;20496;-64
2022/11/30 01:02:58;;;;;;;39.15;25.80;;;5.90;99.90;;;;;;5032874;28;20477;-64
2022/11/30 01:05:24;;;;;;;40.03;25.83;;;5.90;99.90;;;;;;5038465;28;20060;-64
2022/11/30 01:07:50;;;;;;;37.80;25.48;;;5.90;99.90;;;;;;5037471;28;20041;-65
2022/11/30 01:10:16;;;;;;;38.58;25.98;;;5.90;99.90;;;;;;5039590;28;20457;-64
2022/11/30 01:12:42;;;;;;;42.95;28.38;;;5.80;99.90;;;;;;5038253;28;20044;-64
2022/11/30 01:15:08;;;;;;;42.60;25.98;;;5.80;99.90;;;;;;5034332;28;20033;-65
2022/11/30 01:17:34;;;;;;;46.47;28.20;;;5.80;99.90;;;;;;5040070;28;20053;-65
2022/11/30 01:19:59;;;;;;;40.67;26.13;;;5.90;99.90;;;;;;5041318;28;20041;-66
2022/11/30 01:22:25;;;;;;;41.55;27.65;;;5.90;99.90;;;;;;5038196;28;20063;-66
2022/11/30 01:24:51;;;;;;;44.17;28.50;;;5.90;99.90;;;;;;5044338;28;20036;-65
2022/11/30 01:27:16;;;;;;;43.35;28.52;;;6.00;99.90;;;;;;5039555;28;20516;-64
2022/11/30 01:29:42;;;;;;;45.50;28.90;;;5.90;99.90;;;;;;5041903;28;20033;-65
2022/11/30 01:32:08;;;;;;;45.28;28.00;;;5.90;99.90;;;;;;5041262;28;20040;-65
2022/11/30 01:34:33;;;;;;;44.80;28.30;;;5.90;99.90;;;;;;5037597;28;20079;-65
2022/11/30 01:36:59;;;;;;;42.13;27.40;;;5.90;99.90;;;;;;5041457;28;20089;-64
2022/11/30 01:39:25;;;;;;;40.22;27.30;;;5.90;99.90;;;;;;5041761;28;20056;-65
2022/11/30 01:41:53;;;;;;;46.88;28.90;;;5.90;99.90;;;;;;5040400;28;20037;-65
2022/11/30 01:44:25;;;;;;;47.08;28.80;;;5.90;99.90;;;;;;5031180;28;20045;-65
2022/11/30 01:47:05;;;;;;;49.17;30.40;;;5.90;99.90;;;;;;5041458;28;20075;-64
2022/11/30 01:49:34;;;;;;;45.42;28.90;;;5.90;99.90;;;;;;5042886;28;20045;-64
2022/11/30 01:52:01;;;;;;;43.72;28.25;;;5.90;99.90;;;;;;5043750;28;20057;-66
2022/11/30 01:54:48;;;;;;;43.40;29.08;;;5.80;99.90;;;;;;5040675;28;20527;-65
2022/11/30 01:57:35;;;;;;;54.70;29.45;;;5.90;99.90;;;;;;5037214;28;20125;-64
2022/11/30 02:00:06;;;;;;;45.65;28.52;;;5.90;99.90;;;;;;5039415;28;20033;-65
2022/11/30 02:02:47;;;;;;;47.45;28.65;;;5.80;99.90;;;;;;5040830;28;20503;-64
2022/11/30 02:05:16;;;;;;;50.88;30.83;;;5.90;99.90;;;;;;5041638;28;20040;-64
2022/11/30 02:07:47;;;;;;;48.08;30.70;;;5.90;99.90;;;;;;5033400;28;20084;-66
2022/11/30 02:10:16;;;;;;;49.55;32.03;;;5.80;99.90;;;;;;5041376;28;20048;-64
2022/11/30 02:13:10;;;;;;;45.28;29.65;;;5.80;99.90;;;;;;5038612;28;20593;-64
2022/11/30 02:16:05;;;;;;;45.55;31.35;;;5.90;99.90;;;;;;5042002;28;20076;-65
2022/11/30 02:19:03;;;;;;;48.20;31.13;;;5.90;99.90;;;;;;5044728;28;20079;-64
2022/11/30 02:21:31;;;;;;;46.95;30.48;;;5.90;99.90;;;;;;5042775;28;20057;-64
2022/11/30 02:24:06;;;;;;;50.00;30.20;;;6.00;99.90;;;;;;5038616;28;20060;-65
2022/11/30 02:27:08;;;;;;;45.95;30.13;;;6.00;99.90;;;;;;5043852;28;20128;-64
2022/11/30 02:29:49;;;;;;;44.85;29.40;;;6.00;99.90;;;;;;5054367;28;20053;-64
2022/11/30 02:32:25;;;;;;;47.17;31.67;;;6.00;99.90;;;;;;5035961;28;20095;-65
2022/11/30 02:34:53;;;;;;;50.45;31.65;;;6.00;99.90;;;;;;5039418;28;20045;-64
2022/11/30 02:37:20;;;;;;;48.25;32.00;;;6.00;99.90;;;;;;5036848;28;20094;-64
2022/11/30 02:39:46;;;;;;;47.20;31.33;;;6.10;99.90;;;;;;5038531;28;20070;-65
2022/11/30 02:42:13;;;;;;;47.63;31.08;;;6.10;99.90;;;;;;5039904;28;20041;-65
2022/11/30 02:44:47;;;;;;;46.80;30.95;;;6.10;99.90;;;;;;5042662;28;20048;-65
2022/11/30 02:47:15;;;;;;;47.85;31.45;;;6.10;99.90;;;;;;5038927;28;20041;-65
2022/11/30 02:50:10;;;;;;;51.47;31.10;;;6.10;99.90;;;;;;5038375;28;20052;-65
2022/11/30 02:52:36;;;;;;;51.88;31.65;;;6.20;99.90;;;;;;5036233;28;20053;-65
2022/11/30 02:55:05;;;;;;;53.42;32.03;;;6.10;99.90;;;;;;5037271;28;20346;-64
2022/11/30 02:57:31;;;;;;;49.30;30.90;;;6.20;99.90;;;;;;5036603;28;20042;-65
2022/11/30 02:59:58;;;;;;;44.72;31.13;;;6.20;99.90;;;;;;5041782;28;20056;-65
2022/11/30 03:02:23;;;;;;;48.72;31.98;;;6.20;99.90;;;;;;5042434;28;20033;-65
2022/11/30 03:04:49;;;;;;;46.08;30.75;;;6.20;99.90;;;;;;5042901;28;20445;-64
2022/11/30 03:07:15;;;;;;;50.58;32.75;;;6.20;99.90;;;;;;5035312;28;20067;-65
2022/11/30 03:09:40;;;;;;;45.83;32.67;;;6.10;99.90;;;;;;5038468;28;20045;-65
2022/11/30 03:12:06;;;;;;;46.63;30.50;;;6.10;99.90;;;;;;5039213;28;20047;-65
2022/11/30 03:14:32;;;;;;;46.30;30.90;;;6.20;99.90;;;;;;5039029;28;20045;-64
2022/11/30 03:16:57;;;;;;;49.17;32.03;;;6.20;99.90;;;;;;5039214;28;20041;-65
2022/11/30 03:19:23;;;;;;;50.47;32.20;;;6.20;99.90;;;;;;5038793;28;20059;-64
2022/11/30 03:21:49;;;;;;;46.92;31.20;;;6.20;99.90;;;;;;5037452;28;20465;-64
2022/11/30 03:24:15;;;;;;;46.67;32.47;;;6.20;99.90;;;;;;5043706;28;20044;-65
2022/11/30 03:26:40;;;;;;;54.70;33.10;;;6.30;99.90;;;;;;5038029;28;20032;-65
2022/11/30 03:29:06;;;;;;;52.13;33.85;;;6.40;99.90;;;;;;5040609;28;20032;-64
2022/11/30 03:31:32;;;;;;;48.38;33.28;;;6.30;99.90;;;;;;5037751;28;20033;-65
2022/11/30 03:33:57;;;;;;;48.92;31.40;;;6.20;99.90;;;;;;5039270;28;20048;-65
2022/11/30 03:36:23;;;;;;;55.03;33.90;;;6.30;99.90;;;;;;5044196;28;20056;-64
2022/11/30 03:38:49;;;;;;;47.38;31.85;;;6.30;99.90;;;;;;5040450;28;20115;-65
2022/11/30 03:41:16;;;;;;;46.75;32.55;;;6.30;99.90;;;;;;5040746;28;20056;-64
2022/11/30 03:43:43;;;;;;;47.88;32.05;;;6.30;99.90;;;;;;5037012;28;20496;-65
2022/11/30 03:46:09;;;;;;;54.88;33.08;;;6.40;99.90;;;;;;5032999;28;20049;-65
2022/11/30 03:48:35;;;;;;;48.15;32.47;;;6.40;99.90;;;;;;5035498;28;20045;-64
2022/11/30 03:51:01;;;;;;;50.35;32.47;;;6.30;99.90;;;;;;5040644;28;20084;-64
2022/11/30 03:53:27;;;;;;;58.28;34.78;;;6.40;99.90;;;;;;5038807;28;20036;-64
2022/11/30 03:56:00;;;;;;;52.50;32.70;;;6.30;99.90;;;;;;5033223;28;20381;-64
2022/11/30 03:58:27;;;;;;;49.42;32.78;;;6.40;99.90;;;;;;5038352;28;20047;-65
2022/11/30 04:01:00;;;;;;;52.63;32.72;;;6.30;99.90;;;;;;5039973;28;20517;-65
2022/11/30 04:03:26;;;;;;;52.00;33.63;;;6.40;99.90;;;;;;5041136;28;20346;-65
2022/11/30 04:05:52;;;;;;;57.42;34.13;;;6.30;99.90;;;;;;5038991;28;20241;-66
2022/11/30 04:08:17;;;;;;;51.15;33.60;;;6.40;99.90;;;;;;5041216;28;20420;-64
2022/11/30 04:10:46;;;;;;;52.83;32.70;;;6.30;99.90;;;;;;5042548;28;20068;-64
2022/11/30 04:13:12;;;;;;;52.92;34.00;;;6.40;99.90;;;;;;5039272;28;20044;-65
2022/11/30 04:15:38;;;;;;;51.65;32.95;;;6.30;99.90;;;;;;5036345;28;20038;-65
2022/11/30 04:18:04;;;;;;;50.92;34.10;;;6.40;99.90;;;;;;5040578;28;20083;-64
2022/11/30 04:20:30;;;;;;;47.38;32.15;;;6.40;99.90;;;;;;5039487;28;20438;-64
2022/11/30 04:22:59;;;;;;;49.35;33.67;;;6.40;99.90;;;;;;5041336;28;20070;-65
2022/11/30 04:25:24;;;;;;;54.55;33.85;;;6.40;99.90;;;;;;5037167;28;20565;-66
2022/11/30 04:27:50;;;;;;;56.90;35.40;;;6.40;99.90;;;;;;5036897;28;20120;-65
2022/11/30 04:30:16;;;;;;;55.70;34.22;;;6.40;99.90;;;;;;5042299;28;20049;-65
2022/11/30 04:32:42;;;;;;;52.38;32.97;;;6.50;99.90;;;;;;5033611;28;20125;-65
2022/11/30 04:35:09;;;;;;;55.35;33.45;;;6.40;99.90;;;;;;5036795;28;20418;-65
2022/11/30 04:37:35;;;;;;;53.65;32.50;;;6.40;99.90;;;;;;5041104;28;20402;-64
2022/11/30 04:40:00;;;;;;;55.28;34.45;;;6.40;99.90;;;;;;5038522;28;20045;-64
2022/11/30 04:42:26;;;;;;;59.63;34.13;;;6.40;99.90;;;;;;5040013;28;20088;-66
2022/11/30 04:44:52;;;;;;;52.28;32.80;;;6.50;99.90;;;;;;5034574;28;20049;-64
2022/11/30 04:47:17;;;;;;;53.75;33.67;;;6.40;99.90;;;;;;5038147;28;20049;-65
2022/11/30 04:49:43;;;;;;;59.88;34.17;;;6.40;99.90;;;;;;5036207;28;20061;-64
2022/11/30 04:52:08;;;;;;;59.72;34.92;;;6.50;99.90;;;;;;5020378;28;20053;-65
2022/11/30 04:54:34;;;;;;;49.80;33.47;;;6.50;99.90;;;;;;5043209;28;20116;-65
2022/11/30 04:57:00;;;;;;;61.50;35.38;;;6.50;99.90;;;;;;5040486;28;20037;-65
2022/11/30 04:59:25;;;;;;;49.88;32.42;;;6.50;99.90;;;;;;5039465;28;20484;-66
2022/11/30 05:01:51;;;;;;;54.33;32.47;;;6.50;99.90;;;;;;5045564;28;20033;-64
2022/11/30 05:04:17;;;;;;;55.63;33.90;;;6.50;99.90;;;;;;5037965;28;20045;-65
2022/11/30 05:06:42;;;;;;;54.92;32.50;;;6.50;99.90;;;;;;5041654;28;20037;-65
2022/11/30 05:09:08;;;;;;;61.35;34.67;;;6.50;99.90;;;;;;5040757;28;20124;-65
2022/11/30 05:11:34;;;;;;;55.20;32.90;;;6.50;99.90;;;;;;5041141;28;20044;-65
2022/11/30 05:13:59;;;;;;;50.63;31.00;;;6.50;99.90;;;;;;5042278;28;20032;-64
2022/11/30 05:16:25;;;;;;;54.88;30.88;;;6.50;99.90;;;;;;5041069;28;20091;-64
2022/11/30 05:18:51;;;;;;;65.13;33.55;;;6.50;99.90;;;;;;5038101;28;20033;-66
2022/11/30 05:21:16;;;;;;;60.40;33.67;;;6.50;99.90;;;;;;5038025;28;20042;-65
2022/11/30 05:23:42;;;;;;;53.42;31.77;;;6.50;99.90;;;;;;5041546;28;20186;-65
2022/11/30 05:26:08;;;;;;;59.28;34.03;;;6.50;99.90;;;;;;5043141;28;20110;-65
2022/11/30 05:28:35;;;;;;;55.10;31.65;;;6.50;99.90;;;;;;5038700;28;20489;-65
2022/11/30 05:31:04;;;;;;;55.58;31.58;;;6.50;99.90;;;;;;5049233;28;20037;-65
2022/11/30 05:33:30;;;;;;;59.78;33.08;;;6.50;99.90;;;;;;5039309;28;20033;-64
2022/11/30 05:35:56;;;;;;;57.13;30.40;;;6.50;99.90;;;;;;5045388;28;20488;-66
2022/11/30 05:38:22;;;;;;;60.13;32.30;;;6.60;99.90;;;;;;5043923;28;20262;-64
2022/11/30 05:40:47;;;;;;;54.45;31.00;;;6.50;99.90;;;;;;5038756;28;20037;-64
2022/11/30 05:43:13;;;;;;;58.90;31.13;;;6.60;99.90;;;;;;5038880;28;20045;-65
2022/11/30 05:45:39;;;;;;;57.97;32.88;;;6.50;99.90;;;;;;5041580;28;20049;-65
2022/11/30 05:48:05;;;;;;;55.70;31.20;;;6.60;99.90;;;;;;5038917;28;20045;-65
2022/11/30 05:50:31;;;;;;;54.25;31.45;;;6.50;99.90;;;;;;5040710;28;20039;-65
2022/11/30 05:52:59;;;;;;;58.88;30.17;;;6.50;99.90;;;;;;5042635;28;20480;-65
2022/11/30 05:55:26;;;;;;;57.83;32.15;;;6.60;99.90;;;;;;5043371;28;20061;-66
2022/11/30 05:57:52;;;;;;;61.13;32.85;;;6.50;99.90;;;;;;5040921;28;20084;-64
2022/11/30 06:00:19;;;;;;;52.88;28.88;;;6.50;99.90;;;;;;5037130;28;20048;-64
2022/11/30 06:02:45;;;;;;;51.65;28.63;;;6.50;99.90;;;;;;5040130;28;20044;-64
2022/11/30 06:05:12;;;;;;;51.15;29.90;;;6.50;99.90;;;;;;5024374;28;20045;-65
2022/11/30 06:07:38;;;;;;;51.72;29.80;;;6.50;99.90;;;;;;5040341;28;21662;-65
2022/11/30 06:10:05;;;;;;;46.65;29.30;;;6.50;99.90;;;;;;5040015;28;20069;-64
2022/11/30 06:12:31;;;;;;;58.10;30.48;;;6.50;99.90;;;;;;5038996;28;20037;-64
2022/11/30 06:14:57;;;;;;;52.25;29.45;;;6.50;99.90;;;;;;5040511;28;20481;-65
2022/11/30 06:17:23;;;;;;;55.13;29.45;;;6.50;99.90;;;;;;5043813;28;20056;-64
2022/11/30 06:19:48;;;;;;;51.92;28.50;;;6.50;99.90;;;;;;5042122;28;20513;-64
2022/11/30 06:22:14;;;;;;;53.75;29.38;;;6.50;99.90;;;;;;5043803;28;20139;-64
2022/11/30 06:24:40;;;;;;;50.28;27.35;;;6.50;99.90;;;;;;5038226;28;20043;-64
2022/11/30 06:27:05;;;;;;;47.72;27.10;;;6.50;99.90;;;;;;5039575;28;20473;-64
2022/11/30 06:29:31;;;;;;;48.60;26.98;;;6.50;99.90;;;;;;5042415;28;20042;-64
2022/11/30 06:31:57;;;;;;;54.10;29.00;;;6.50;99.90;;;;;;5041252;28;20543;-64
2022/11/30 06:34:22;;;;;;;51.00;27.05;;;6.50;99.90;;;;;;5041628;28;20397;-65
2022/11/30 06:36:49;;;;;;;47.17;27.02;;;6.50;99.90;;;;;;5047271;28;20040;-64
2022/11/30 06:39:14;;;;;;;51.17;27.67;;;6.50;99.90;;;;;;5040147;28;20045;-64
2022/11/30 06:41:40;;;;;;;49.35;26.75;;;6.50;99.90;;;;;;5039124;28;20060;-64
2022/11/30 06:44:09;;;;;;;44.70;25.45;;;6.60;99.90;;;;;;5038370;28;20033;-64
2022/11/30 06:46:35;;;;;;;44.20;25.95;;;6.50;99.90;;;;;;5039820;28;20087;-64
2022/11/30 06:49:01;;;;;;;43.65;25.48;;;6.50;99.90;;;;;;5040127;28;20431;-64
2022/11/30 06:51:27;;;;;;;51.03;27.38;;;6.50;99.90;;;;;;5040218;28;20045;-65
2022/11/30 06:53:52;;;;;;;41.45;24.42;;;6.50;99.90;;;;;;5033338;28;20029;-64
2022/11/30 06:56:18;;;;;;;44.58;26.33;;;6.50;99.90;;;;;;5040919;28;20073;-63
2022/11/30 06:58:44;;;;;;;42.85;25.65;;;6.50;99.90;;;;;;5039388;28;20103;-63
2022/11/30 07:01:13;;;;;;;45.83;26.23;;;6.50;99.90;;;;;;5035129;28;20072;-64
2022/11/30 07:03:40;;;;;;;47.42;25.25;;;6.50;99.90;;;;;;5037352;28;20080;-65
2022/11/30 07:06:08;;;;;;;51.55;27.27;;;6.40;99.90;;;;;;5036720;28;20041;-64
2022/11/30 07:08:34;;;;;;;47.50;26.10;;;6.50;99.90;;;;;;5037274;28;20041;-63
2022/11/30 07:10:59;;;;;;;47.08;27.38;;;6.50;99.90;;;;;;5037215;28;20059;-65
2022/11/30 07:13:25;;;;;;;52.80;28.52;;;6.50;99.90;;;;;;5034328;28;20497;-65
2022/11/30 07:15:51;;;;;;;50.03;27.35;;;6.40;99.90;;;;;;5035250;28;20400;-65
2022/11/30 07:18:16;;;;;;;52.03;27.45;;;6.50;99.90;;;;;;5035093;28;20167;-64
2022/11/30 07:20:42;;;;;;;58.05;30.73;;;6.50;99.90;;;;;;5045375;28;20043;-65
2022/11/30 07:26:05;;;;;;;58.40;30.20;;;6.50;99.90;;;;;;5042799;28;20077;-65
2022/11/30 07:28:31;;;;;;;60.00;30.00;;;6.40;99.90;;;;;;5044119;28;20072;-65
2022/11/30 07:30:57;;;;;;;48.35;26.25;;;6.50;99.90;;;;;;5040180;28;20054;-65
2022/11/30 07:33:22;;;;;;;41.80;24.70;;;6.50;99.90;;;;;;5037612;28;20041;-65
2022/11/30 07:35:48;;;;;;;46.03;23.35;;;6.40;99.90;;;;;;5042553;28;20124;-65
2022/11/30 07:38:14;;;;;;;40.20;22.80;;;6.50;99.90;;;;;;5038594;28;20045;-65
2022/11/30 07:40:39;;;;;;;41.38;22.90;;;6.40;99.90;;;;;;5020439;28;20113;-64
2022/11/30 07:43:05;;;;;;;39.65;22.25;;;6.40;99.90;;;;;;5040709;28;20054;-64
2022/11/30 07:45:31;;;;;;;38.53;22.33;;;6.40;99.90;;;;;;5037656;28;20551;-65
2022/11/30 07:47:58;;;;;;;35.95;20.00;;;6.40;99.90;;;;;;5039385;28;20363;-65
2022/11/30 07:50:24;;;;;;;35.63;21.25;;;6.40;99.90;;;;;;5039296;28;20493;-65
2022/11/30 07:52:49;;;;;;;32.63;20.77;;;6.40;99.90;;;;;;5037059;28;20520;-65
2022/11/30 07:55:15;;;;;;;34.35;20.10;;;6.40;99.90;;;;;;5037590;28;20036;-65
2022/11/30 07:57:41;;;;;;;31.88;19.63;;;6.40;99.90;;;;;;5039727;28;20045;-65
2022/11/30 08:00:08;;;;;;;32.78;18.90;;;6.40;99.90;;;;;;5039630;28;20037;-65
2022/11/30 08:02:33;;;;;;;30.63;18.95;;;6.40;99.90;;;;;;5041009;28;20037;-65
2022/11/30 08:04:59;;;;;;;28.85;18.48;;;6.40;99.90;;;;;;5039859;28;20533;-66
2022/11/30 08:07:25;;;;;;;29.90;19.35;;;6.40;99.90;;;;;;5040467;28;20055;-66
2022/11/30 08:09:50;;;;;;;32.72;18.85;;;6.40;99.90;;;;;;5040857;28;20064;-65
2022/11/30 08:12:16;;;;;;;25.77;17.40;;;6.40;99.90;;;;;;5036026;28;20052;-65
2022/11/30 08:14:42;;;;;;;26.88;18.00;;;6.40;99.90;;;;;;5046799;28;20033;-65
2022/11/30 08:17:08;;;;;;;26.35;17.70;;;6.40;99.90;;;;;;5037523;28;20037;-65
2022/11/30 08:19:34;;;;;;;26.45;17.05;;;6.40;99.90;;;;;;5023849;28;20474;-64
2022/11/30 08:22:00;;;;;;;26.15;17.38;;;6.30;99.90;;;;;;5037791;28;20071;-65
2022/11/30 08:24:25;;;;;;;24.02;15.95;;;6.40;99.90;;;;;;5037052;28;20034;-65
2022/11/30 08:26:52;;;;;;;25.02;16.75;;;6.30;99.90;;;;;;5038340;28;20133;-65
2022/11/30 08:29:17;;;;;;;24.95;16.52;;;6.40;99.90;;;;;;5042485;28;20401;-65
2022/11/30 08:31:43;;;;;;;24.10;17.27;;;6.30;99.90;;;;;;5042238;28;20044;-64
2022/11/30 08:34:11;;;;;;;28.48;16.98;;;6.40;99.90;;;;;;5043067;28;20045;-65
2022/11/30 08:36:38;;;;;;;27.40;17.23;;;6.40;99.90;;;;;;5039718;28;20053;-64
2022/11/30 08:39:05;;;;;;;24.63;17.15;;;6.30;99.90;;;;;;5057100;28;20039;-65
2022/11/30 08:41:33;;;;;;;23.63;16.25;;;6.30;99.90;;;;;;5041295;28;20045;-64
2022/11/30 08:43:59;;;;;;;23.48;16.33;;;6.30;99.90;;;;;;5042527;28;20044;-66
2022/11/30 08:46:25;;;;;;;25.67;17.73;;;6.30;99.90;;;;;;5040649;28;20073;-66
2022/11/30 08:48:51;;;;;;;27.05;16.88;;;6.30;99.90;;;;;;5044586;28;20076;-66
2022/11/30 08:51:19;;;;;;;25.27;16.55;;;6.40;99.90;;;;;;5035526;28;20486;-66
2022/11/30 08:53:46;;;;;;;26.35;17.98;;;6.40;99.90;;;;;;5040856;28;20087;-65
2022/11/30 08:56:14;;;;;;;25.10;17.80;;;6.40;99.90;;;;;;5038560;28;20049;-65
2022/11/30 08:58:40;;;;;;;29.27;18.45;;;6.40;99.90;;;;;;5044394;28;20038;-64
2022/11/30 09:01:18;;;;;;;25.00;17.00;;;6.40;99.90;;;;;;5043076;28;20045;-65
2022/11/30 09:03:45;;;;;;;25.83;17.17;;;6.40;99.90;;;;;;5044331;28;20060;-66
2022/11/30 09:06:16;;;;;;;22.63;15.77;;;6.40;99.90;;;;;;5042209;28;20055;-65
2022/11/30 09:08:44;;;;;;;24.88;17.90;;;6.40;99.90;;;;;;5042310;28;20041;-64
2022/11/30 09:11:44;;;;;;;24.23;17.92;;;6.40;99.90;;;;;;5040389;28;20049;-64
2022/11/30 09:14:10;;;;;;;26.38;16.30;;;6.50;99.90;;;;;;5038925;28;20223;-65
2022/11/30 09:16:35;;;;;;;23.08;15.68;;;6.50;99.90;;;;;;5043575;28;20079;-65
2022/11/30 09:19:01;;;;;;;22.42;14.93;;;6.40;99.90;;;;;;5042392;28;20561;-65
2022/11/30 09:21:27;;;;;;;21.13;16.05;;;6.50;99.90;;;;;;5042021;28;20095;-65
2022/11/30 09:23:55;;;;;;;21.75;14.80;;;6.40;99.90;;;;;;5045311;28;20044;-65
2022/11/30 09:26:24;;;;;;;20.77;14.57;;;6.40;99.90;;;;;;5036629;28;20045;-64
2022/11/30 09:28:50;;;;;;;20.00;14.43;;;6.40;99.90;;;;;;5038344;28;20080;-64
2022/11/30 09:31:21;;;;;;;18.85;14.20;;;6.40;99.90;;;;;;5040024;28;20048;-65
2022/11/30 09:33:47;;;;;;;16.20;13.60;;;6.40;99.90;;;;;;5039998;28;20551;-64
2022/11/30 09:36:16;;;;;;;17.50;13.90;;;6.40;99.90;;;;;;5036060;28;20084;-65
2022/11/30 09:38:42;;;;;;;17.63;14.27;;;6.40;99.90;;;;;;5042109;28;20365;-65
2022/11/30 09:41:32;;;;;;;16.55;13.70;;;6.40;99.90;;;;;;5045472;28;20122;-64
2022/11/30 09:44:13;;;;;;;17.83;12.98;;;6.40;99.90;;;;;;5043518;28;20063;-65
2022/11/30 09:46:58;;;;;;;18.10;14.02;;;6.40;99.90;;;;;;5042072;28;20072;-65
2022/11/30 09:49:31;;;;;;;16.10;13.55;;;6.50;99.90;;;;;;5037964;28;20041;-66
2022/11/30 09:52:03;;;;;;;15.85;13.25;;;6.50;99.90;;;;;;5041165;28;20032;-65
2022/11/30 09:54:38;;;;;;;16.90;13.55;;;6.50;99.90;;;;;;5041883;28;20126;-64
2022/11/30 09:57:18;;;;;;;18.48;14.93;;;6.50;99.90;;;;;;5046184;28;20044;-67
2022/11/30 09:59:53;;;;;;;15.00;13.30;;;6.50;99.90;;;;;;5052204;28;20045;-67
2022/11/30 10:02:21;;;;;;;15.73;13.27;;;6.50;99.90;;;;;;5053652;28;20050;-67
2022/11/30 10:04:46;;;;;;;16.70;13.98;;;6.50;99.90;;;;;;5052683;28;20067;-67
2022/11/30 10:07:24;;;;;;;15.57;13.27;;;6.50;99.90;;;;;;5047488;28;20124;-67
2022/11/30 10:10:04;;;;;;;16.58;13.40;;;6.50;99.90;;;;;;5051558;28;20461;-67
2022/11/30 10:12:50;;;;;;;16.20;13.63;;;6.60;99.90;;;;;;5049540;28;20045;-66
2022/11/30 10:15:37;;;;;;;14.32;12.82;;;6.50;99.90;;;;;;5050959;28;20047;-67
2022/11/30 10:18:20;;;;;;;16.60;13.60;;;6.60;99.90;;;;;;5047677;28;20048;-67
2022/11/30 10:21:05;;;;;;;15.18;13.20;;;6.60;99.90;;;;;;5044934;28;20042;-67
2022/11/30 10:23:40;;;;;;;13.70;12.30;;;6.60;99.90;;;;;;5034483;28;20049;-67
2022/11/30 10:26:14;;;;;;;15.57;12.38;;;6.70;99.90;;;;;;5048086;28;20038;-67
2022/11/30 10:28:46;;;;;;;14.45;12.75;;;6.70;99.90;;;;;;5042734;28;20044;-67
2022/11/30 10:31:13;;;;;;;14.60;12.27;;;6.70;99.90;;;;;;5041085;28;20041;-67
2022/11/30 10:36:40;;;;;;;18.00;13.85;;;6.70;99.90;;;;;;5139715;27;20214;-66
2022/11/30 10:39:19;;;;;;;17.55;14.32;;;6.80;99.90;;;;;;5127664;28;20047;-67
2022/11/30 10:42:12;;;;;;;18.60;15.38;;;6.80;99.90;;;;;;5127331;28;20063;-67
2022/11/30 10:44:41;;;;;;;20.33;15.73;;;6.70;99.90;;;;;;5112696;28;20043;-67
2022/11/30 10:47:19;;;;;;;20.95;16.58;;;6.70;99.90;;;;;;5109158;28;20046;-67
2022/11/30 10:49:48;;;;;;;20.77;16.55;;;6.70;99.90;;;;;;5128604;28;20127;-67
2022/11/30 10:52:19;;;;;;;20.73;16.65;;;6.70;99.90;;;;;;5125859;28;20125;-67
2022/11/30 10:54:44;;;;;;;23.15;18.17;;;6.70;99.90;;;;;;5120101;28;20043;-67
2022/11/30 10:57:13;;;;;;;22.08;17.85;;;6.70;99.90;;;;;;5127122;28;20484;-67
2022/11/30 10:59:48;;;;;;;23.08;18.25;;;6.70;99.90;;;;;;5123747;28;20155;-67
2022/11/30 11:02:35;;;;;;;21.80;18.58;;;6.70;99.90;;;;;;5104412;28;20047;-67
2022/11/30 11:05:08;;;;;;;25.80;19.90;;;6.70;99.90;;;;;;5125936;28;20040;-66
2022/11/30 11:08:00;;;;;;;24.52;19.08;;;6.70;99.90;;;;;;5109134;28;20063;-67
2022/11/30 11:10:47;;;;;;;24.90;19.10;;;6.70;99.90;;;;;;5128340;28;20031;-66
2022/11/30 11:13:39;;;;;;;26.17;18.95;;;6.70;99.90;;;;;;5123958;28;20032;-67
2022/11/30 11:16:08;;;;;;;26.45;19.77;;;6.70;99.90;;;;;;5095252;28;20036;-67
2022/11/30 11:18:35;;;;;;;25.08;19.95;;;6.80;99.90;;;;;;5115992;28;20028;-67
2022/11/30 11:21:17;;;;;;;27.67;20.33;;;6.70;99.90;;;;;;5111059;28;20066;-67
2022/11/30 11:23:44;;;;;;;23.13;18.65;;;6.80;99.90;;;;;;5084804;28;20040;-67
2022/11/30 11:26:21;;;;;;;25.40;19.50;;;6.80;99.90;;;;;;5095445;28;20048;-67
2022/11/30 11:28:49;;;;;;;25.55;20.02;;;6.80;99.90;;;;;;5111052;28;20043;-67
2022/11/30 11:31:28;;;;;;;27.42;21.10;;;6.80;99.90;;;;;;5088553;28;20052;-67
2022/11/30 11:33:54;;;;;;;26.40;19.95;;;6.80;99.90;;;;;;5108886;28;20103;-67
2022/11/30 11:36:35;;;;;;;27.02;20.38;;;6.80;99.90;;;;;;5098602;28;20079;-67
2022/11/30 11:39:02;;;;;;;25.20;20.48;;;6.80;99.90;;;;;;5093181;28;20127;-67
2022/11/30 11:41:33;;;;;;;23.10;19.15;;;6.80;99.90;;;;;;5091608;28;20043;-67
2022/11/30 11:44:05;;;;;;;26.17;19.45;;;6.90;99.90;;;;;;5111806;28;20031;-67
2022/11/30 11:46:33;;;;;;;26.10;19.92;;;6.80;99.90;;;;;;5105474;28;20111;-67
2022/11/30 11:49:04;;;;;;;27.52;20.02;;;6.90;99.90;;;;;;5097173;28;20126;-67
2022/11/30 11:51:34;;;;;;;26.67;20.70;;;6.80;99.90;;;;;;5062740;28;20138;-67
2022/11/30 11:54:26;;;;;;;24.83;19.38;;;6.90;99.90;;;;;;5091089;28;20043;-67
2022/11/30 11:56:55;;;;;;;24.70;19.67;;;6.90;99.90;;;;;;5095773;28;20071;-67
2022/11/30 11:59:44;;;;;;;23.98;19.80;;;6.90;99.90;;;;;;5095305;28;20039;-67
2022/11/30 12:02:38;;;;;;;25.30;19.50;;;6.90;99.90;;;;;;5098191;28;20091;-67
2022/11/30 12:05:09;;;;;;;24.98;19.67;;;6.90;99.90;;;;;;5097973;28;20048;-67
2022/11/30 12:07:48;;;;;;;24.75;19.60;;;6.80;99.90;;;;;;5076125;28;20059;-67
2022/11/30 12:10:31;;;;;;;23.27;19.23;;;6.90;99.90;;;;;;5095203;28;20508;-67
2022/11/30 12:12:58;;;;;;;23.20;18.50;;;6.90;99.90;;;;;;5093358;28;20048;-67
2022/11/30 12:15:58;;;;;;;23.27;18.98;;;6.90;99.90;;;;;;5096589;28;20149;-67
2022/11/30 12:18:32;;;;;;;24.63;19.38;;;6.90;99.90;;;;;;5074018;28;20106;-67
2022/11/30 12:21:14;;;;;;;27.88;20.52;;;6.90;99.90;;;;;;5075904;28;20494;-67
2022/11/30 12:24:18;;;;;;;26.60;20.42;;;7.00;99.90;;;;;;5092228;28;20036;-67
2022/11/30 12:26:54;;;;;;;26.20;20.48;;;7.00;99.90;;;;;;5092696;28;20115;-67
2022/11/30 12:29:43;;;;;;;26.27;20.60;;;6.90;99.90;;;;;;5092901;28;20035;-67
2022/11/30 12:32:11;;;;;;;26.00;19.50;;;7.00;99.90;;;;;;5089607;28;20523;-67
2022/11/30 12:34:51;;;;;;;29.35;20.98;;;7.00;99.90;;;;;;5075929;28;20151;-67
2022/11/30 12:37:40;;;;;;;24.95;20.15;;;7.00;99.90;;;;;;5093762;28;20036;-67
2022/11/30 12:40:26;;;;;;;29.58;21.05;;;6.90;99.90;;;;;;5094853;28;20043;-67
2022/11/30 12:42:54;;;;;;;30.00;23.00;;;6.90;99.90;;;;;;5093169;28;20036;-68
2022/11/30 12:45:29;;;;;;;29.27;22.80;;;6.90;99.90;;;;;;5094691;28;20120;-68
2022/11/30 12:48:17;;;;;;;28.23;22.33;;;6.90;99.90;;;;;;5094820;28;20123;-67
2022/11/30 12:50:55;;;;;;;31.52;22.23;;;7.00;99.90;;;;;;5056771;28;20119;-68
2022/11/30 12:53:36;;;;;;;29.05;22.00;;;7.00;99.90;;;;;;5094954;28;20091;-67
2022/11/30 12:56:02;;;;;;;29.58;22.60;;;7.00;99.90;;;;;;5095179;28;20107;-68